sensor_id;sensor_type;location;lat;lon;timestamp;temperature;humidity
53314;DHT22;39202;51.468;7.146;2022-08-03T00:02:50;31.80;40.50
53314;DHT22;39202;51.468;7.146;2022-08-03T00:07:53;31.80;40.50
53314;DHT22;39202;51.468;7.146;2022-08-03T00:12:55;31.80;40.50
53314;DHT22;39202;51.468;7.146;2022-08-03T00:17:57;31.80;40.60
53314;DHT22;39202;51.468;7.146;2022-08-03T00:23:00;31.80;41.20
53314;DHT22;39202;51.468;7.146;2022-08-03T00:28:02;31.80;40.60
53314;DHT22;39202;51.468;7.146;2022-08-03T00:33:04;31.80;40.60
53314;DHT22;39202;51.468;7.146;2022-08-03T00:38:07;31.80;40.60
53314;DHT22;39202;51.468;7.146;2022-08-03T00:43:09;31.80;40.70
53314;DHT22;39202;51.468;7.146;2022-08-03T00:48:11;31.80;40.70
53314;DHT22;39202;51.468;7.146;2022-08-03T00:53:14;31.80;40.80
53314;DHT22;39202;51.468;7.146;2022-08-03T00:58:16;31.80;40.70
53314;DHT22;39202;51.468;7.146;2022-08-03T01:03:18;31.80;40.70
53314;DHT22;39202;51.468;7.146;2022-08-03T01:08:24;31.80;40.70
53314;DHT22;39202;51.468;7.146;2022-08-03T01:13:34;31.80;40.80
53314;DHT22;39202;51.468;7.146;2022-08-03T01:18:40;31.70;40.70
53314;DHT22;39202;51.468;7.146;2022-08-03T01:23:58;31.70;40.70
53314;DHT22;39202;51.468;7.146;2022-08-03T01:29:19;31.70;40.80
53314;DHT22;39202;51.468;7.146;2022-08-03T01:34:30;31.70;40.80
53314;DHT22;39202;51.468;7.146;2022-08-03T01:39:32;31.70;40.70
53314;DHT22;39202;51.468;7.146;2022-08-03T01:44:40;31.70;40.70
53314;DHT22;39202;51.468;7.146;2022-08-03T01:49:44;31.70;40.80
53314;DHT22;39202;51.468;7.146;2022-08-03T01:54:50;31.70;40.80
53314;DHT22;39202;51.468;7.146;2022-08-03T01:59:55;31.70;40.80
53314;DHT22;39202;51.468;7.146;2022-08-03T02:05:00;31.60;40.70
53314;DHT22;39202;51.468;7.146;2022-08-03T02:10:05;31.60;40.70
53314;DHT22;39202;51.468;7.146;2022-08-03T02:15:08;31.60;40.80
53314;DHT22;39202;51.468;7.146;2022-08-03T02:20:12;31.60;40.80
53314;DHT22;39202;51.468;7.146;2022-08-03T02:25:15;31.60;40.80
53314;DHT22;39202;51.468;7.146;2022-08-03T02:30:17;31.60;40.80
53314;DHT22;39202;51.468;7.146;2022-08-03T02:35:24;31.60;40.80
53314;DHT22;39202;51.468;7.146;2022-08-03T02:40:28;31.60;40.90
53314;DHT22;39202;51.468;7.146;2022-08-03T02:45:31;31.60;40.80
53314;DHT22;39202;51.468;7.146;2022-08-03T02:50:37;31.60;40.90
53314;DHT22;39202;51.468;7.146;2022-08-03T02:55:41;31.60;40.90
53314;DHT22;39202;51.468;7.146;2022-08-03T03:00:43;31.60;40.90
53314;DHT22;39202;51.468;7.146;2022-08-03T03:05:47;31.60;40.90
53314;DHT22;39202;51.468;7.146;2022-08-03T03:10:50;31.60;40.90
53314;DHT22;39202;51.468;7.146;2022-08-03T03:15:53;31.50;40.80
53314;DHT22;39202;51.468;7.146;2022-08-03T03:21:00;31.50;40.90
53314;DHT22;39202;51.468;7.146;2022-08-03T03:26:03;31.50;40.90
53314;DHT22;39202;51.468;7.146;2022-08-03T03:31:05;31.50;40.90
53314;DHT22;39202;51.468;7.146;2022-08-03T03:36:09;31.50;40.90
53314;DHT22;39202;51.468;7.146;2022-08-03T03:41:11;31.50;41.00
53314;DHT22;39202;51.468;7.146;2022-08-03T03:46:13;31.50;41.00
53314;DHT22;39202;51.468;7.146;2022-08-03T03:51:16;31.50;41.00
53314;DHT22;39202;51.468;7.146;2022-08-03T03:56:18;31.50;41.00
53314;DHT22;39202;51.468;7.146;2022-08-03T04:01:20;31.50;41.00
53314;DHT22;39202;51.468;7.146;2022-08-03T04:06:24;31.50;41.00
53314;DHT22;39202;51.468;7.146;2022-08-03T04:11:47;31.50;41.10
53314;DHT22;39202;51.468;7.146;2022-08-03T04:16:54;31.40;41.00
53314;DHT22;39202;51.468;7.146;2022-08-03T04:22:00;31.40;41.00
53314;DHT22;39202;51.468;7.146;2022-08-03T04:27:06;31.40;41.00
53314;DHT22;39202;51.468;7.146;2022-08-03T04:32:09;31.40;41.00
53314;DHT22;39202;51.468;7.146;2022-08-03T04:37:18;31.40;41.00
53314;DHT22;39202;51.468;7.146;2022-08-03T04:42:25;31.40;41.00
53314;DHT22;39202;51.468;7.146;2022-08-03T04:47:28;31.40;41.00
53314;DHT22;39202;51.468;7.146;2022-08-03T04:52:33;31.40;41.10
53314;DHT22;39202;51.468;7.146;2022-08-03T04:57:35;31.40;41.10
53314;DHT22;39202;51.468;7.146;2022-08-03T05:02:37;31.40;41.10
53314;DHT22;39202;51.468;7.146;2022-08-03T05:07:40;31.40;41.10
53314;DHT22;39202;51.468;7.146;2022-08-03T05:12:43;31.40;41.10
53314;DHT22;39202;51.468;7.146;2022-08-03T05:17:45;31.40;41.20
53314;DHT22;39202;51.468;7.146;2022-08-03T05:22:49;31.40;41.10
53314;DHT22;39202;51.468;7.146;2022-08-03T05:27:51;31.40;41.10
53314;DHT22;39202;51.468;7.146;2022-08-03T05:32:53;31.40;41.20
53314;DHT22;39202;51.468;7.146;2022-08-03T05:37:56;31.40;41.10
53314;DHT22;39202;51.468;7.146;2022-08-03T05:42:58;31.40;41.10
53314;DHT22;39202;51.468;7.146;2022-08-03T05:48:00;31.50;41.10
53314;DHT22;39202;51.468;7.146;2022-08-03T05:53:03;31.50;41.10
53314;DHT22;39202;51.468;7.146;2022-08-03T05:58:04;31.60;41.10
53314;DHT22;39202;51.468;7.146;2022-08-03T06:03:06;31.60;41.00
53314;DHT22;39202;51.468;7.146;2022-08-03T06:08:09;31.60;41.00
53314;DHT22;39202;51.468;7.146;2022-08-03T06:13:11;31.70;41.00
53314;DHT22;39202;51.468;7.146;2022-08-03T06:18:13;31.80;41.10
53314;DHT22;39202;51.468;7.146;2022-08-03T06:23:16;31.80;41.10
53314;DHT22;39202;51.468;7.146;2022-08-03T06:28:18;31.80;41.30
53314;DHT22;39202;51.468;7.146;2022-08-03T06:33:20;31.90;41.40
53314;DHT22;39202;51.468;7.146;2022-08-03T06:38:23;31.90;41.40
53314;DHT22;39202;51.468;7.146;2022-08-03T06:43:24;31.90;41.60
53314;DHT22;39202;51.468;7.146;2022-08-03T06:48:26;31.90;41.60
53314;DHT22;39202;51.468;7.146;2022-08-03T06:53:29;31.90;41.60
53314;DHT22;39202;51.468;7.146;2022-08-03T06:58:31;32.00;41.60
53314;DHT22;39202;51.468;7.146;2022-08-03T07:03:32;32.00;41.70
53314;DHT22;39202;51.468;7.146;2022-08-03T07:08:36;32.00;41.70
53314;DHT22;39202;51.468;7.146;2022-08-03T07:13:37;32.10;41.70
53314;DHT22;39202;51.468;7.146;2022-08-03T07:18:40;32.10;41.70
53314;DHT22;39202;51.468;7.146;2022-08-03T07:23:43;32.10;41.70
53314;DHT22;39202;51.468;7.146;2022-08-03T07:28:45;32.20;41.70
53314;DHT22;39202;51.468;7.146;2022-08-03T07:33:47;32.20;41.70
53314;DHT22;39202;51.468;7.146;2022-08-03T07:38:50;32.30;41.70
53314;DHT22;39202;51.468;7.146;2022-08-03T07:43:51;32.30;41.70
53314;DHT22;39202;51.468;7.146;2022-08-03T07:48:53;32.30;41.70
53314;DHT22;39202;51.468;7.146;2022-08-03T07:53:56;32.30;41.60
53314;DHT22;39202;51.468;7.146;2022-08-03T07:58:58;32.40;41.60
53314;DHT22;39202;51.468;7.146;2022-08-03T08:04:01;32.40;41.60
53314;DHT22;39202;51.468;7.146;2022-08-03T08:09:04;32.40;41.40
53314;DHT22;39202;51.468;7.146;2022-08-03T08:14:06;32.90;41.60
53314;DHT22;39202;51.468;7.146;2022-08-03T08:19:09;32.60;41.30
53314;DHT22;39202;51.468;7.146;2022-08-03T08:24:12;33.30;41.80
53314;DHT22;39202;51.468;7.146;2022-08-03T08:29:14;32.70;41.20
53314;DHT22;39202;51.468;7.146;2022-08-03T08:34:15;32.80;41.10
53314;DHT22;39202;51.468;7.146;2022-08-03T08:39:18;32.90;41.00
53314;DHT22;39202;51.468;7.146;2022-08-03T08:44:20;32.90;40.90
53314;DHT22;39202;51.468;7.146;2022-08-03T08:49:22;32.90;40.80
53314;DHT22;39202;51.468;7.146;2022-08-03T08:54:28;33.10;40.70
53314;DHT22;39202;51.468;7.146;2022-08-03T08:59:33;33.10;40.70
53314;DHT22;39202;51.468;7.146;2022-08-03T09:04:37;33.10;40.60
53314;DHT22;39202;51.468;7.146;2022-08-03T09:09:41;33.10;40.40
53314;DHT22;39202;51.468;7.146;2022-08-03T09:14:43;33.20;40.50
53314;DHT22;39202;51.468;7.146;2022-08-03T09:25:07;33.20;40.60
53314;DHT22;39202;51.468;7.146;2022-08-03T09:35:25;33.40;39.70
53314;DHT22;39202;51.468;7.146;2022-08-03T09:40:34;33.50;39.80
53314;DHT22;39202;51.468;7.146;2022-08-03T09:45:38;33.60;39.90
53314;DHT22;39202;51.468;7.146;2022-08-03T09:50:47;33.70;39.90
53314;DHT22;39202;51.468;7.146;2022-08-03T10:05:57;34.00;38.70
53314;DHT22;39202;51.468;7.146;2022-08-03T10:11:00;34.10;39.20
53314;DHT22;39202;51.468;7.146;2022-08-03T10:16:02;34.10;39.00
53314;DHT22;39202;51.468;7.146;2022-08-03T10:21:07;34.10;38.90
53314;DHT22;39202;51.468;7.146;2022-08-03T10:26:15;34.00;38.80
53314;DHT22;39202;51.468;7.146;2022-08-03T10:31:21;34.00;39.00
53314;DHT22;39202;51.468;7.146;2022-08-03T10:36:26;34.10;39.00
53314;DHT22;39202;51.468;7.146;2022-08-03T10:41:37;34.20;39.10
53314;DHT22;39202;51.468;7.146;2022-08-03T10:46:41;34.30;38.90
53314;DHT22;39202;51.468;7.146;2022-08-03T10:51:44;34.30;38.50
53314;DHT22;39202;51.468;7.146;2022-08-03T10:56:48;34.30;38.40
53314;DHT22;39202;51.468;7.146;2022-08-03T11:02:07;34.30;38.10
53314;DHT22;39202;51.468;7.146;2022-08-03T11:07:20;34.20;38.20
53314;DHT22;39202;51.468;7.146;2022-08-03T11:12:25;34.20;38.20
53314;DHT22;39202;51.468;7.146;2022-08-03T11:17:27;34.20;38.30
53314;DHT22;39202;51.468;7.146;2022-08-03T11:22:47;34.20;38.30
53314;DHT22;39202;51.468;7.146;2022-08-03T11:28:26;34.20;38.20
53314;DHT22;39202;51.468;7.146;2022-08-03T11:33:29;34.20;38.20
53314;DHT22;39202;51.468;7.146;2022-08-03T11:38:31;34.30;38.40
53314;DHT22;39202;51.468;7.146;2022-08-03T11:43:43;34.40;38.30
53314;DHT22;39202;51.468;7.146;2022-08-03T11:48:46;34.40;38.00
53314;DHT22;39202;51.468;7.146;2022-08-03T11:53:53;34.50;37.80
53314;DHT22;39202;51.468;7.146;2022-08-03T11:58:57;36.00;38.40
53314;DHT22;39202;51.468;7.146;2022-08-03T12:04:02;34.70;37.70
53314;DHT22;39202;51.468;7.146;2022-08-03T12:09:14;34.70;37.50
53314;DHT22;39202;51.468;7.146;2022-08-03T12:14:18;34.70;37.00
53314;DHT22;39202;51.468;7.146;2022-08-03T12:19:20;34.70;37.20
53314;DHT22;39202;51.468;7.146;2022-08-03T12:24:21;34.60;37.30
53314;DHT22;39202;51.468;7.146;2022-08-03T12:29:24;34.60;37.40
53314;DHT22;39202;51.468;7.146;2022-08-03T12:34:44;34.60;37.40
53314;DHT22;39202;51.468;7.146;2022-08-03T12:39:49;34.70;37.10
53314;DHT22;39202;51.468;7.146;2022-08-03T12:44:52;34.80;37.40
53314;DHT22;39202;51.468;7.146;2022-08-03T12:49:54;34.90;37.00
53314;DHT22;39202;51.468;7.146;2022-08-03T12:54:57;35.00;37.00
53314;DHT22;39202;51.468;7.146;2022-08-03T13:00:10;35.10;36.70
53314;DHT22;39202;51.468;7.146;2022-08-03T13:05:13;35.20;36.60
53314;DHT22;39202;51.468;7.146;2022-08-03T13:10:27;35.20;36.70
53314;DHT22;39202;51.468;7.146;2022-08-03T13:15:30;35.30;36.40
53314;DHT22;39202;51.468;7.146;2022-08-03T13:20:32;35.30;36.50
53314;DHT22;39202;51.468;7.146;2022-08-03T13:25:34;35.30;36.50
53314;DHT22;39202;51.468;7.146;2022-08-03T13:30:37;35.30;36.50
53314;DHT22;39202;51.468;7.146;2022-08-03T13:35:38;35.20;36.60
53314;DHT22;39202;51.468;7.146;2022-08-03T13:40:40;35.20;36.60
53314;DHT22;39202;51.468;7.146;2022-08-03T13:45:43;35.10;36.70
53314;DHT22;39202;51.468;7.146;2022-08-03T13:50:45;35.10;36.50
53314;DHT22;39202;51.468;7.146;2022-08-03T13:55:47;35.00;36.50
53314;DHT22;39202;51.468;7.146;2022-08-03T14:00:50;35.00;36.50
53314;DHT22;39202;51.468;7.146;2022-08-03T14:05:51;35.00;36.60
53314;DHT22;39202;51.468;7.146;2022-08-03T14:10:53;35.00;36.70
53314;DHT22;39202;51.468;7.146;2022-08-03T14:15:57;35.00;36.60
53314;DHT22;39202;51.468;7.146;2022-08-03T14:21:00;35.00;36.40
53314;DHT22;39202;51.468;7.146;2022-08-03T14:26:02;34.90;36.40
53314;DHT22;39202;51.468;7.146;2022-08-03T14:31:06;34.90;36.40
53314;DHT22;39202;51.468;7.146;2022-08-03T14:36:08;35.00;36.50
53314;DHT22;39202;51.468;7.146;2022-08-03T14:41:09;35.00;36.30
53314;DHT22;39202;51.468;7.146;2022-08-03T14:46:13;35.00;36.30
53314;DHT22;39202;51.468;7.146;2022-08-03T14:51:14;35.10;36.50
53314;DHT22;39202;51.468;7.146;2022-08-03T14:56:17;35.10;36.40
53314;DHT22;39202;51.468;7.146;2022-08-03T15:01:20;35.20;36.30
53314;DHT22;39202;51.468;7.146;2022-08-03T15:06:22;35.20;36.00
53314;DHT22;39202;51.468;7.146;2022-08-03T15:11:24;35.20;36.10
53314;DHT22;39202;51.468;7.146;2022-08-03T15:16:27;35.20;36.00
53314;DHT22;39202;51.468;7.146;2022-08-03T15:21:29;35.20;35.90
53314;DHT22;39202;51.468;7.146;2022-08-03T15:26:30;35.20;35.90
53314;DHT22;39202;51.468;7.146;2022-08-03T15:31:33;35.20;35.70
53314;DHT22;39202;51.468;7.146;2022-08-03T15:36:35;35.20;35.70
53314;DHT22;39202;51.468;7.146;2022-08-03T15:41:37;35.10;35.60
53314;DHT22;39202;51.468;7.146;2022-08-03T15:46:41;35.10;35.70
53314;DHT22;39202;51.468;7.146;2022-08-03T15:51:42;35.20;35.60
53314;DHT22;39202;51.468;7.146;2022-08-03T15:56:44;35.10;35.30
53314;DHT22;39202;51.468;7.146;2022-08-03T16:01:47;35.10;35.40
53314;DHT22;39202;51.468;7.146;2022-08-03T16:06:49;35.10;35.30
53314;DHT22;39202;51.468;7.146;2022-08-03T16:11:51;35.20;35.30
53314;DHT22;39202;51.468;7.146;2022-08-03T16:16:54;35.10;35.10
53314;DHT22;39202;51.468;7.146;2022-08-03T16:21:56;35.10;35.00
53314;DHT22;39202;51.468;7.146;2022-08-03T16:26:57;35.20;35.10
53314;DHT22;39202;51.468;7.146;2022-08-03T16:32:00;35.00;35.00
53314;DHT22;39202;51.468;7.146;2022-08-03T16:37:06;35.00;34.80
53314;DHT22;39202;51.468;7.146;2022-08-03T16:42:08;35.00;34.80
53314;DHT22;39202;51.468;7.146;2022-08-03T16:47:11;35.00;34.70
53314;DHT22;39202;51.468;7.146;2022-08-03T16:52:13;34.90;34.70
53314;DHT22;39202;51.468;7.146;2022-08-03T16:57:15;34.90;34.90
53314;DHT22;39202;51.468;7.146;2022-08-03T17:02:20;34.90;34.90
53314;DHT22;39202;51.468;7.146;2022-08-03T17:07:23;34.90;34.50
53314;DHT22;39202;51.468;7.146;2022-08-03T17:12:25;34.90;34.90
53314;DHT22;39202;51.468;7.146;2022-08-03T17:17:30;34.90;34.70
53314;DHT22;39202;51.468;7.146;2022-08-03T17:22:33;34.80;34.40
53314;DHT22;39202;51.468;7.146;2022-08-03T17:27:35;34.90;34.30
53314;DHT22;39202;51.468;7.146;2022-08-03T17:32:41;34.80;34.40
53314;DHT22;39202;51.468;7.146;2022-08-03T17:37:46;34.80;34.50
53314;DHT22;39202;51.468;7.146;2022-08-03T17:42:48;34.80;34.40
53314;DHT22;39202;51.468;7.146;2022-08-03T17:47:51;34.80;34.30
53314;DHT22;39202;51.468;7.146;2022-08-03T17:53:02;34.80;34.30
53314;DHT22;39202;51.468;7.146;2022-08-03T17:58:08;34.80;34.10
53314;DHT22;39202;51.468;7.146;2022-08-03T18:03:22;34.80;34.20
53314;DHT22;39202;51.468;7.146;2022-08-03T18:08:26;34.80;34.30
53314;DHT22;39202;51.468;7.146;2022-08-03T18:13:29;34.80;34.30
53314;DHT22;39202;51.468;7.146;2022-08-03T18:18:40;34.80;34.40
53314;DHT22;39202;51.468;7.146;2022-08-03T18:23:42;34.80;34.20
53314;DHT22;39202;51.468;7.146;2022-08-03T18:28:48;34.80;34.30
53314;DHT22;39202;51.468;7.146;2022-08-03T18:33:51;34.80;34.40
53314;DHT22;39202;51.468;7.146;2022-08-03T18:38:53;34.80;34.50
53314;DHT22;39202;51.468;7.146;2022-08-03T18:43:55;34.70;34.80
53314;DHT22;39202;51.468;7.146;2022-08-03T18:49:02;34.70;34.80
53314;DHT22;39202;51.468;7.146;2022-08-03T18:54:08;34.70;35.20
53314;DHT22;39202;51.468;7.146;2022-08-03T18:59:14;34.70;35.20
53314;DHT22;39202;51.468;7.146;2022-08-03T19:04:28;34.70;35.50
53314;DHT22;39202;51.468;7.146;2022-08-03T19:09:36;34.60;35.60
53314;DHT22;39202;51.468;7.146;2022-08-03T19:14:51;34.60;35.80
53314;DHT22;39202;51.468;7.146;2022-08-03T19:19:57;34.60;36.00
53314;DHT22;39202;51.468;7.146;2022-08-03T19:24:59;34.50;36.00
53314;DHT22;39202;51.468;7.146;2022-08-03T19:30:05;34.50;36.10
53314;DHT22;39202;51.468;7.146;2022-08-03T19:35:09;34.40;36.10
53314;DHT22;39202;51.468;7.146;2022-08-03T19:40:11;34.40;36.20
53314;DHT22;39202;51.468;7.146;2022-08-03T19:45:15;34.30;36.30
53314;DHT22;39202;51.468;7.146;2022-08-03T19:50:20;34.30;36.50
53314;DHT22;39202;51.468;7.146;2022-08-03T19:55:22;34.30;36.70
53314;DHT22;39202;51.468;7.146;2022-08-03T20:00:28;34.10;39.20
53314;DHT22;39202;51.468;7.146;2022-08-03T20:05:32;34.20;36.80
53314;DHT22;39202;51.468;7.146;2022-08-03T20:10:34;34.10;36.90
53314;DHT22;39202;51.468;7.146;2022-08-03T20:15:36;34.10;36.90
53314;DHT22;39202;51.468;7.146;2022-08-03T20:20:40;34.00;37.00
53314;DHT22;39202;51.468;7.146;2022-08-03T20:25:47;34.00;37.30
53314;DHT22;39202;51.468;7.146;2022-08-03T20:30:48;34.00;37.50
53314;DHT22;39202;51.468;7.146;2022-08-03T20:35:51;33.90;37.40
53314;DHT22;39202;51.468;7.146;2022-08-03T20:40:53;33.90;37.60
53314;DHT22;39202;51.468;7.146;2022-08-03T20:45:55;33.90;37.60
53314;DHT22;39202;51.468;7.146;2022-08-03T20:50:58;33.90;37.70
53314;DHT22;39202;51.468;7.146;2022-08-03T20:56:01;33.90;37.80
53314;DHT22;39202;51.468;7.146;2022-08-03T21:01:03;33.80;37.80
53314;DHT22;39202;51.468;7.146;2022-08-03T21:06:09;33.80;37.80
53314;DHT22;39202;51.468;7.146;2022-08-03T21:11:17;33.80;38.10
53314;DHT22;39202;51.468;7.146;2022-08-03T21:16:19;33.70;38.20
53314;DHT22;39202;51.468;7.146;2022-08-03T21:21:30;33.70;38.10
53314;DHT22;39202;51.468;7.146;2022-08-03T21:26:33;33.70;38.20
53314;DHT22;39202;51.468;7.146;2022-08-03T21:31:39;33.70;38.30
53314;DHT22;39202;51.468;7.146;2022-08-03T21:36:42;33.70;38.40
53314;DHT22;39202;51.468;7.146;2022-08-03T21:41:44;33.60;38.50
53314;DHT22;39202;51.468;7.146;2022-08-03T21:46:47;33.60;38.50
53314;DHT22;39202;51.468;7.146;2022-08-03T21:51:51;33.60;44.40
53314;DHT22;39202;51.468;7.146;2022-08-03T21:56:55;33.50;38.80
53314;DHT22;39202;51.468;7.146;2022-08-03T22:07:06;33.50;38.20
53314;DHT22;39202;51.468;7.146;2022-08-03T22:12:07;33.40;38.80
53314;DHT22;39202;51.468;7.146;2022-08-03T22:17:09;33.40;38.70
53314;DHT22;39202;51.468;7.146;2022-08-03T22:22:13;33.40;38.90
53314;DHT22;39202;51.468;7.146;2022-08-03T22:27:15;33.40;39.00
53314;DHT22;39202;51.468;7.146;2022-08-03T22:32:34;33.40;39.00
53314;DHT22;39202;51.468;7.146;2022-08-03T22:37:39;33.30;39.00
53314;DHT22;39202;51.468;7.146;2022-08-03T22:42:43;33.30;39.10
53314;DHT22;39202;51.468;7.146;2022-08-03T22:47:50;33.30;39.30
53314;DHT22;39202;51.468;7.146;2022-08-03T22:52:54;33.30;39.30
53314;DHT22;39202;51.468;7.146;2022-08-03T22:57:55;31.80;38.50
53314;DHT22;39202;51.468;7.146;2022-08-03T23:02:59;33.20;39.40
53314;DHT22;39202;51.468;7.146;2022-08-03T23:08:06;33.20;39.50
53314;DHT22;39202;51.468;7.146;2022-08-03T23:13:09;33.20;39.60
53314;DHT22;39202;51.468;7.146;2022-08-03T23:18:11;33.20;39.60
53314;DHT22;39202;51.468;7.146;2022-08-03T23:23:14;33.20;39.60
53314;DHT22;39202;51.468;7.146;2022-08-03T23:28:17;33.20;39.70
53314;DHT22;39202;51.468;7.146;2022-08-03T23:33:19;33.20;39.70
53314;DHT22;39202;51.468;7.146;2022-08-03T23:38:24;33.20;39.70
53314;DHT22;39202;51.468;7.146;2022-08-03T23:43:28;33.30;39.90
53314;DHT22;39202;51.468;7.146;2022-08-03T23:48:30;33.20;39.80
53314;DHT22;39202;51.468;7.146;2022-08-03T23:53:38;33.20;39.80
53314;DHT22;39202;51.468;7.146;2022-08-03T23:58:52;33.20;39.90
